createdAt,value
2017-11-23T00:01:01.190Z,10.30
2017-11-23T00:03:32.306Z,10.30
2017-11-23T00:06:04.153Z,10.70
2017-11-23T00:08:35.499Z,10.70
2017-11-23T00:11:06.877Z,10.60
2017-11-23T00:13:40.868Z,10.60
2017-11-23T00:16:12.185Z,10.50
2017-11-23T00:18:43.859Z,10.40
2017-11-23T00:21:14.617Z,10.50
2017-11-23T00:23:45.835Z,10.60
2017-11-23T00:26:17.520Z,10.60
2017-11-23T00:28:49.260Z,10.40
2017-11-23T00:31:20.402Z,10.40
2017-11-23T00:33:52.069Z,10.40
2017-11-23T00:36:23.226Z,10.40
2017-11-23T00:38:54.280Z,10.40
2017-11-23T00:41:25.379Z,10.30
2017-11-23T00:43:56.456Z,10.30
2017-11-23T00:46:28.186Z,10.20
2017-11-23T00:48:59.763Z,10.20
2017-11-23T00:51:30.548Z,10.10
2017-11-23T00:54:01.452Z,10.10
2017-11-23T00:56:32.585Z,10.00
2017-11-23T00:59:04.405Z,9.90
2017-11-23T01:01:35.238Z,9.80
2017-11-23T01:04:06.014Z,9.70
2017-11-23T01:06:37.627Z,9.40
2017-11-23T01:09:08.313Z,9.40
2017-11-23T01:11:39.455Z,9.30
2017-11-23T01:14:11.634Z,9.50
2017-11-23T01:16:42.375Z,9.40
2017-11-23T01:19:13.732Z,9.30
2017-11-23T01:21:45.221Z,9.40
2017-11-23T01:24:23.528Z,9.30
2017-11-23T01:26:56.505Z,9.50
2017-11-23T01:29:28.714Z,9.60
2017-11-23T01:31:59.853Z,9.50
2017-11-23T01:34:31.275Z,9.50
2017-11-23T01:37:06.188Z,9.40
2017-11-23T01:39:37.328Z,9.30
2017-11-23T01:42:09.525Z,9.30
2017-11-23T01:44:41.488Z,9.30
2017-11-23T01:47:12.610Z,9.30
2017-11-23T01:49:44.210Z,9.30
2017-11-23T01:52:15.821Z,9.30
2017-11-23T01:54:46.669Z,9.20
2017-11-23T01:57:17.862Z,9.20
2017-11-23T01:59:49.582Z,9.20
2017-11-23T02:02:20.593Z,9.20
2017-11-23T02:04:53.266Z,9.30
2017-11-23T02:07:24.621Z,9.30
2017-11-23T02:09:56.079Z,9.30
2017-11-23T02:12:28.056Z,9.40
2017-11-23T02:15:00.197Z,9.40
2017-11-23T02:17:31.415Z,9.40
2017-11-23T02:20:02.887Z,9.60
2017-11-23T02:22:34.243Z,9.60
2017-11-23T02:25:06.505Z,9.60
2017-11-23T02:27:37.690Z,9.70
2017-11-23T02:30:09.213Z,9.80
2017-11-23T02:32:40.509Z,9.80
2017-11-23T02:35:13.170Z,9.80
2017-11-23T02:37:44.074Z,9.90
2017-11-23T03:13:03.279Z,10.80
2017-11-23T03:15:45.271Z,10.80
2017-11-23T03:18:30.879Z,10.80
2017-11-23T03:21:02.927Z,10.70
2017-11-23T03:23:42.372Z,10.70
2017-11-23T03:29:05.061Z,10.70
2017-11-23T03:31:35.715Z,10.70
2017-11-23T03:34:07.835Z,10.80
2017-11-23T03:36:38.530Z,10.90
2017-11-23T03:39:09.207Z,10.80
2017-11-23T03:41:40.072Z,10.90
2017-11-23T03:44:12.188Z,10.90
2017-11-23T03:49:48.233Z,10.80
2017-11-23T03:52:37.795Z,10.90
2017-11-23T03:55:08.761Z,10.80
2017-11-23T03:57:39.383Z,10.70
2017-11-23T04:00:10.738Z,10.70
2017-11-23T04:02:50.515Z,10.80
2017-11-23T04:05:21.135Z,10.80
2017-11-23T04:08:09.239Z,10.90
2017-11-23T04:11:01.413Z,10.80
2017-11-23T04:13:44.143Z,10.70
2017-11-23T04:16:16.730Z,10.80
2017-11-23T04:18:53.486Z,10.80
2017-11-23T04:21:28.603Z,10.80
2017-11-23T04:24:01.276Z,10.80
2017-11-23T04:26:46.646Z,10.80
2017-11-23T04:30:15.624Z,10.80
2017-11-23T04:36:13.346Z,10.80
2017-11-23T04:38:46.039Z,10.90
2017-11-23T04:41:22.197Z,10.90
2017-11-23T04:44:05.401Z,10.90
2017-11-23T04:46:38.050Z,10.90
2017-11-23T04:49:16.178Z,10.90
2017-11-23T04:51:54.129Z,10.90
2017-11-23T04:57:29.961Z,10.90
2017-11-23T05:00:11.679Z,10.90
2017-11-23T05:02:42.352Z,10.90
2017-11-23T05:05:13.150Z,10.90
2017-11-23T05:07:45.951Z,10.90
2017-11-23T05:10:18.500Z,10.90
2017-11-23T05:12:50.066Z,10.90
2017-11-23T05:15:22.423Z,11.00
2017-11-23T05:17:54.374Z,11.00
2017-11-23T05:20:39.442Z,11.00
2017-11-23T05:23:12.442Z,11.00
2017-11-23T05:25:43.317Z,10.90
2017-11-23T05:28:14.196Z,10.80
2017-11-23T05:30:52.956Z,10.90
2017-11-23T05:33:28.701Z,11.00
2017-11-23T05:36:06.334Z,11.00
2017-11-23T05:38:38.262Z,10.90
2017-11-23T05:41:08.992Z,11.00
2017-11-23T05:43:39.705Z,11.10
2017-11-23T05:46:15.226Z,11.20
2017-11-23T05:48:46.034Z,11.20
2017-11-23T05:51:24.444Z,11.10
2017-11-23T05:53:54.979Z,11.10
2017-11-23T05:56:25.349Z,11.10
2017-11-23T05:58:56.343Z,11.10
2017-11-23T06:01:26.848Z,11.10
2017-11-23T06:03:57.833Z,11.20
2017-11-23T06:06:34.244Z,11.20
2017-11-23T06:09:06.125Z,11.20
2017-11-23T06:11:38.499Z,11.20
2017-11-23T06:14:12.814Z,11.10
2017-11-23T06:16:46.784Z,11.10
2017-11-23T06:19:20.623Z,11.30
2017-11-23T06:21:56.278Z,11.30
2017-11-23T06:24:41.846Z,11.40
2017-11-23T06:27:15.194Z,11.30
2017-11-23T06:32:49.130Z,11.30
2017-11-23T06:35:32.263Z,11.40
2017-11-23T06:38:06.398Z,11.30
2017-11-23T06:41:00.304Z,11.40
2017-11-23T06:43:50.108Z,11.40
2017-11-23T06:46:24.349Z,11.30
2017-11-23T06:49:04.910Z,11.40
2017-11-23T06:51:36.379Z,11.40
2017-11-23T06:54:13.918Z,11.40
2017-11-23T06:56:45.784Z,11.40
2017-11-23T06:59:26.054Z,11.50
2017-11-23T07:02:22.702Z,11.40
2017-11-23T07:05:03.589Z,11.40
2017-11-23T07:10:16.705Z,11.60
2017-11-23T07:15:39.283Z,11.70
2017-11-23T07:18:17.752Z,11.70
2017-11-23T07:20:58.732Z,11.70
2017-11-23T07:23:37.999Z,11.60
2017-11-23T07:35:07.137Z,11.60
2017-11-23T07:37:40.544Z,11.60
2017-11-23T07:40:13.973Z,11.70
2017-11-23T07:43:25.527Z,11.70
2017-11-23T07:46:05.374Z,11.80
2017-11-23T07:48:38.417Z,11.70
2017-11-23T07:51:10.031Z,11.70
2017-11-23T07:53:42.089Z,11.80
2017-11-23T07:59:10.170Z,11.60
2017-11-23T08:01:46.954Z,11.70
2017-11-23T08:04:20.870Z,11.70
2017-11-23T08:07:14.644Z,11.70
2017-11-23T08:10:10.632Z,11.80
2017-11-23T08:15:23.287Z,11.80
2017-11-23T08:17:57.888Z,11.80
2017-11-23T08:20:41.234Z,11.90
2017-11-23T08:23:14.540Z,11.90
2017-11-23T08:25:49.049Z,12.10
2017-11-23T08:28:32.435Z,12.10
2017-11-23T08:31:06.678Z,12.10
2017-11-23T08:33:43.941Z,12.20
2017-11-23T08:36:28.503Z,12.30
2017-11-23T08:39:06.070Z,12.30
2017-11-23T08:41:45.175Z,12.60
2017-11-23T08:44:18.752Z,13.00
2017-11-23T08:46:52.524Z,13.20
2017-11-23T08:49:30.686Z,13.50
2017-11-23T08:52:07.153Z,13.60
2017-11-23T08:54:53.747Z,13.70
2017-11-23T08:57:24.593Z,13.80
2017-11-23T08:59:56.237Z,13.90
2017-11-23T09:02:43.134Z,14.00
2017-11-23T09:05:54.430Z,13.60
2017-11-23T09:08:25.767Z,13.60
2017-11-23T09:11:00.666Z,14.10
2017-11-23T09:13:33.085Z,14.30
2017-11-23T09:16:18.642Z,14.40
2017-11-23T09:18:51.322Z,14.60
2017-11-23T09:21:21.815Z,14.80
2017-11-23T09:23:53.520Z,14.90
2017-11-23T09:27:10.816Z,15.00
2017-11-23T09:29:41.195Z,14.70
2017-11-23T09:32:11.701Z,14.50
2017-11-23T09:34:42.841Z,14.40
2017-11-23T09:37:16.755Z,14.40
2017-11-23T09:39:52.599Z,14.60
2017-11-23T09:46:49.682Z,14.70
2017-11-23T09:49:20.641Z,14.60
2017-11-23T09:51:51.458Z,14.70
2017-11-23T09:54:22.032Z,14.70
2017-11-23T10:00:29.110Z,14.80
2017-11-23T10:03:01.578Z,14.70
2017-11-23T10:05:32.486Z,14.60
2017-11-23T10:08:11.432Z,14.60
2017-11-23T10:10:42.682Z,14.60
2017-11-23T10:18:53.598Z,14.60
2017-11-23T10:21:24.370Z,14.70
2017-11-23T10:23:57.536Z,14.60
2017-11-23T10:26:43.923Z,14.60
2017-11-23T10:29:28.790Z,14.50
2017-11-23T10:32:00.568Z,14.50
2017-11-23T10:34:34.740Z,14.40
2017-11-23T10:37:10.600Z,14.30
2017-11-23T10:39:41.338Z,14.10
2017-11-23T10:42:42.613Z,14.10
2017-11-23T10:45:13.936Z,14.10
2017-11-23T10:48:06.104Z,14.20
2017-11-23T10:50:43.348Z,14.20
2017-11-23T10:53:15.185Z,14.20
2017-11-23T10:55:50.246Z,14.20
2017-11-23T11:15:10.667Z,14.20
2017-11-23T11:41:06.240Z,12.80
2017-11-23T11:46:24.063Z,12.60
2017-11-23T11:48:59.729Z,12.40
2017-11-23T11:51:35.610Z,12.40
2017-11-23T11:54:12.073Z,12.40
2017-11-23T11:57:08.068Z,12.30
2017-11-23T11:59:41.988Z,12.20
2017-11-23T12:12:27.563Z,12.20
2017-11-23T12:15:09.873Z,12.20
2017-11-23T12:17:57.983Z,12.10
2017-11-23T12:20:48.645Z,12.10
2017-11-23T12:24:42.713Z,12.20
2017-11-23T12:27:18.981Z,12.30
2017-11-23T12:36:31.267Z,12.30
2017-11-23T12:39:17.867Z,12.40
2017-11-23T12:48:49.772Z,12.80
2017-11-23T12:51:35.173Z,12.80
2017-11-23T12:54:16.653Z,12.90
2017-11-23T12:57:57.445Z,12.90
2017-11-23T13:00:44.845Z,13.20
2017-11-23T13:03:18.940Z,13.60
2017-11-23T13:06:03.390Z,13.60
2017-11-23T13:08:35.016Z,13.50
2017-11-23T13:11:06.225Z,13.50
2017-11-23T13:13:37.929Z,13.60
2017-11-23T13:16:08.832Z,13.60
2017-11-23T13:18:41.715Z,13.60
2017-11-23T13:21:14.943Z,13.60
2017-11-23T13:23:45.767Z,13.60
2017-11-23T13:26:16.862Z,13.60
2017-11-23T13:28:48.421Z,13.60
2017-11-23T13:31:21.348Z,13.60
2017-11-23T13:33:51.964Z,13.60
2017-11-23T13:36:23.875Z,13.60
2017-11-23T13:38:54.384Z,13.70
2017-11-23T13:41:24.931Z,13.70
2017-11-23T13:43:56.337Z,13.70
2017-11-23T13:46:39.000Z,13.70
2017-11-23T13:49:12.454Z,13.80
2017-11-23T13:51:42.788Z,13.80
2017-11-23T13:54:13.162Z,13.80
2017-11-23T13:56:46.624Z,13.80
2017-11-23T13:59:17.384Z,13.90
2017-11-23T14:01:48.747Z,13.90
2017-11-23T14:04:21.469Z,13.90
2017-11-23T14:06:52.853Z,13.90
2017-11-23T14:09:23.578Z,13.90
2017-11-23T14:11:54.143Z,13.90
2017-11-23T14:14:24.633Z,13.90
2017-11-23T14:16:56.038Z,13.90
2017-11-23T14:19:26.801Z,13.90
2017-11-23T14:21:57.213Z,13.90
2017-11-23T14:24:28.130Z,14.00
2017-11-23T14:27:00.219Z,14.00
2017-11-23T14:29:31.206Z,14.10
2017-11-23T14:32:04.042Z,14.10
2017-11-23T14:34:36.372Z,14.10
2017-11-23T14:37:07.329Z,14.10
2017-11-23T14:39:37.704Z,14.10
2017-11-23T14:42:08.058Z,14.10
2017-11-23T14:44:48.031Z,14.10
2017-11-23T14:47:19.352Z,14.10
2017-11-23T14:49:50.038Z,14.00
2017-11-23T14:52:21.023Z,14.10
2017-11-23T14:54:58.233Z,14.10
2017-11-23T14:57:29.546Z,14.10
2017-11-23T14:59:59.909Z,14.00
2017-11-23T15:02:31.801Z,14.10
2017-11-23T15:05:02.152Z,14.00
2017-11-23T15:07:33.269Z,14.10
2017-11-23T15:10:03.664Z,14.10
2017-11-23T15:12:34.921Z,14.20
2017-11-23T15:15:06.977Z,14.20
2017-11-23T15:17:38.270Z,14.30
2017-11-23T15:20:09.572Z,14.20
2017-11-23T15:22:40.334Z,14.30
2017-11-23T15:25:10.752Z,14.30
2017-11-23T15:27:43.468Z,14.20
2017-11-23T15:30:13.845Z,14.30
2017-11-23T15:32:45.876Z,14.20
2017-11-23T15:35:16.447Z,14.20
2017-11-23T15:37:47.212Z,14.20
2017-11-23T15:40:17.628Z,14.10
2017-11-23T15:42:48.912Z,13.90
2017-11-23T15:45:20.333Z,13.90
2017-11-23T15:47:50.696Z,13.90
2017-11-23T15:50:29.142Z,13.90
2017-11-23T15:53:00.643Z,13.50
2017-11-23T15:55:35.971Z,13.10
2017-11-23T15:58:08.602Z,13.00
2017-11-23T16:00:40.138Z,12.70
2017-11-23T16:03:11.132Z,12.70
2017-11-23T16:05:41.938Z,12.60
2017-11-23T16:08:14.733Z,12.60
2017-11-23T16:10:46.329Z,12.70
2017-11-23T16:13:17.562Z,12.50
2017-11-23T16:15:51.497Z,12.40
2017-11-23T16:18:22.773Z,12.20
2017-11-23T16:20:54.731Z,12.10
2017-11-23T16:23:32.602Z,12.10
2017-11-23T16:26:11.620Z,12.00
2017-11-23T16:28:43.879Z,11.90
2017-11-23T16:31:16.612Z,11.70
2017-11-23T16:33:48.938Z,11.60
2017-11-23T16:36:49.994Z,11.40
2017-11-23T16:39:26.561Z,11.20
2017-11-23T16:47:08.260Z,11.10
2017-11-23T16:49:48.454Z,11.10
2017-11-23T16:52:33.982Z,11.10
2017-11-23T16:55:10.239Z,11.10
2017-11-23T16:58:02.466Z,11.10
2017-11-23T17:00:52.671Z,11.00
2017-11-23T17:03:30.654Z,11.00
2017-11-23T17:06:21.857Z,11.00
2017-11-23T17:09:03.280Z,10.90
2017-11-23T17:11:40.579Z,10.90
2017-11-23T17:17:02.352Z,10.90
2017-11-23T17:19:42.959Z,10.90
2017-11-23T17:22:14.198Z,10.80
2017-11-23T17:25:00.494Z,10.70
2017-11-23T17:27:47.648Z,10.70
2017-11-23T17:30:23.134Z,10.70
2017-11-23T17:32:57.875Z,10.50
2017-11-23T17:35:32.871Z,10.40
2017-11-23T17:38:04.403Z,10.50
2017-11-23T17:40:49.205Z,10.40
2017-11-23T17:43:23.966Z,10.40
2017-11-23T17:45:54.903Z,10.40
2017-11-23T17:48:53.262Z,10.40
2017-11-23T17:51:27.710Z,10.40
2017-11-23T17:54:43.869Z,10.40
2017-11-23T17:57:15.072Z,10.30
2017-11-23T17:59:59.250Z,10.30
2017-11-23T18:02:48.141Z,10.20
2017-11-23T18:05:32.862Z,10.10
2017-11-23T18:08:04.227Z,10.10
2017-11-23T18:10:36.296Z,10.10
2017-11-23T18:13:10.714Z,10.10
2017-11-23T18:15:58.325Z,10.00
2017-11-23T18:18:34.406Z,9.90
2017-11-23T18:21:07.521Z,9.90
2017-11-23T18:26:38.470Z,9.80
2017-11-23T18:29:09.358Z,9.80
2017-11-23T18:32:16.334Z,9.70
2017-11-23T18:34:55.734Z,9.60
2017-11-23T18:37:27.153Z,9.60
2017-11-23T18:40:00.095Z,9.60
2017-11-23T18:42:34.981Z,9.60
2017-11-23T18:45:07.265Z,9.60
2017-11-23T18:47:47.901Z,9.60
2017-11-23T18:50:19.222Z,9.60
2017-11-23T18:52:52.020Z,9.50
2017-11-23T18:55:50.785Z,9.50
2017-11-23T18:58:27.617Z,9.40
2017-11-23T19:01:01.203Z,9.40
2017-11-23T19:03:41.928Z,9.30
2017-11-23T19:06:13.096Z,9.30
2017-11-23T19:09:21.150Z,9.20
2017-11-23T19:11:54.338Z,9.20
2017-11-23T19:14:26.258Z,9.20
2017-11-23T19:17:06.395Z,9.20
2017-11-23T19:19:39.692Z,9.10
2017-11-23T19:22:11.151Z,9.00
2017-11-23T19:24:44.157Z,9.00
2017-11-23T19:30:15.261Z,9.00
2017-11-23T19:35:41.120Z,9.00
2017-11-23T19:38:13.230Z,8.90
2017-11-23T19:41:03.184Z,9.00
2017-11-23T19:43:35.997Z,9.00
2017-11-23T19:46:10.017Z,8.90
2017-11-23T19:48:52.597Z,8.90
2017-11-23T19:51:27.058Z,8.90
2017-11-23T19:54:06.009Z,8.80
2017-11-23T19:56:39.834Z,8.80
2017-11-23T19:59:19.429Z,8.80
2017-11-23T20:01:51.732Z,8.70
2017-11-23T20:04:24.799Z,8.70
2017-11-23T20:06:56.923Z,8.70
2017-11-23T20:09:28.296Z,8.70
2017-11-23T20:12:19.640Z,8.60
2017-11-23T20:14:51.347Z,8.60
2017-11-23T20:17:24.657Z,8.60
2017-11-23T20:19:57.100Z,8.60
2017-11-23T20:22:29.125Z,8.60
2017-11-23T20:24:59.944Z,8.60
2017-11-23T20:27:32.413Z,8.60
2017-11-23T20:30:02.920Z,8.60
2017-11-23T20:32:36.985Z,8.60
2017-11-23T20:35:29.079Z,8.60
2017-11-23T20:38:00.813Z,8.60
2017-11-23T20:40:32.421Z,8.50
2017-11-23T20:43:03.228Z,8.60
2017-11-23T20:45:46.931Z,8.60
2017-11-23T20:48:21.200Z,8.50
2017-11-23T20:50:52.927Z,8.50
2017-11-23T20:54:00.904Z,8.50
2017-11-23T20:56:33.284Z,8.50
2017-11-23T20:59:26.468Z,8.50
2017-11-23T21:02:06.559Z,8.50
2017-11-23T21:04:37.248Z,8.50
2017-11-23T21:07:11.473Z,8.50
2017-11-23T21:10:00.189Z,8.50
2017-11-23T21:12:30.742Z,8.50
2017-11-23T21:15:04.109Z,8.50
2017-11-23T21:17:36.376Z,8.50
2017-11-23T21:20:07.661Z,8.50
2017-11-23T21:22:41.569Z,8.50
2017-11-23T21:25:17.243Z,8.40
2017-11-23T21:27:50.098Z,8.40
2017-11-23T21:30:21.110Z,8.40
2017-11-23T21:33:28.470Z,8.30
2017-11-23T21:36:12.790Z,8.30
2017-11-23T21:38:44.227Z,8.30
2017-11-23T21:41:17.134Z,8.30
2017-11-23T21:44:13.261Z,8.20
2017-11-23T21:46:45.142Z,8.20
2017-11-23T21:49:16.263Z,8.20
2017-11-23T21:51:48.038Z,8.20
2017-11-23T21:54:25.241Z,8.20
2017-11-23T21:56:55.955Z,8.20
2017-11-23T21:59:27.560Z,8.10
2017-11-23T22:02:03.350Z,8.10
2017-11-23T22:04:34.183Z,8.20
2017-11-23T22:07:05.641Z,8.20
2017-11-23T22:09:41.065Z,8.20
2017-11-23T22:12:12.611Z,8.30
2017-11-23T22:14:43.322Z,8.30
2017-11-23T22:17:14.565Z,8.30
2017-11-23T22:19:48.741Z,8.30
2017-11-23T22:22:19.111Z,8.30
2017-11-23T22:24:51.749Z,8.30
2017-11-23T22:27:23.015Z,8.30
2017-11-23T22:29:54.613Z,8.40
2017-11-23T22:32:25.593Z,8.30
2017-11-23T22:34:55.986Z,8.30
2017-11-23T22:37:26.414Z,8.40
2017-11-23T22:39:56.892Z,8.40
2017-11-23T22:42:33.147Z,8.40
2017-11-23T22:45:03.695Z,8.40
2017-11-23T22:47:34.156Z,8.40
2017-11-23T22:53:27.864Z,8.40
2017-11-23T22:55:58.481Z,8.50
2017-11-23T22:58:28.868Z,8.50
2017-11-23T23:01:03.129Z,8.40
2017-11-23T23:03:46.785Z,8.50
2017-11-23T23:06:18.897Z,8.60
2017-11-23T23:08:50.890Z,8.50
2017-11-23T23:11:22.943Z,8.50
2017-11-23T23:13:53.664Z,8.50
2017-11-23T23:16:28.409Z,8.50
2017-11-23T23:18:58.955Z,8.50
2017-11-23T23:21:34.888Z,8.50
2017-11-23T23:24:06.706Z,8.50
2017-11-23T23:26:45.386Z,8.50
2017-11-23T23:29:17.090Z,8.50
2017-11-23T23:31:48.062Z,8.50
2017-11-23T23:34:19.260Z,8.50
2017-11-23T23:36:51.941Z,8.40
2017-11-23T23:39:22.805Z,8.50
2017-11-23T23:41:53.843Z,8.40
2017-11-23T23:44:24.752Z,8.40
2017-11-23T23:46:56.331Z,8.40
2017-11-23T23:49:31.259Z,8.30
2017-11-23T23:52:02.691Z,8.30
2017-11-23T23:54:33.603Z,8.30
2017-11-23T23:57:04.404Z,8.30
2017-11-23T23:59:49.161Z,8.30
